sensor_id;sensor_type;location;lat;lon;timestamp;pressure;altitude;pressure_sealevel;temperature;humidity
11172;BME280;5642;50.830;12.082;2023-04-07T00:02:16;99602.09;;;4.36;26.65
11172;BME280;5642;50.830;12.082;2023-04-07T00:04:46;99605.56;;;4.36;26.43
11172;BME280;5642;50.830;12.082;2023-04-07T00:07:13;99590.03;;;4.21;26.52
11172;BME280;5642;50.830;12.082;2023-04-07T00:09:42;99563.28;;;4.07;27.06
11172;BME280;5642;50.830;12.082;2023-04-07T00:12:08;99609.03;;;4.27;26.65
11172;BME280;5642;50.830;12.082;2023-04-07T00:14:35;99598.69;;;4.20;27.08
11172;BME280;5642;50.830;12.082;2023-04-07T00:17:02;99596.13;;;4.17;26.92
11172;BME280;5642;50.830;12.082;2023-04-07T00:19:29;99604.72;;;4.20;26.71
11172;BME280;5642;50.830;12.082;2023-04-07T00:21:57;99595.25;;;4.15;27.29
11172;BME280;5642;50.830;12.082;2023-04-07T00:24:24;99587.53;;;4.04;27.02
11172;BME280;5642;50.830;12.082;2023-04-07T00:26:54;99572.84;;;3.94;26.89
11172;BME280;5642;50.830;12.082;2023-04-07T00:29:22;99598.72;;;4.09;27.14
11172;BME280;5642;50.830;12.082;2023-04-07T00:31:48;99588.38;;;4.00;27.00
11172;BME280;5642;50.830;12.082;2023-04-07T00:34:17;99585.78;;;3.99;27.20
11172;BME280;5642;50.830;12.082;2023-04-07T00:36:44;99592.69;;;4.03;27.68
11172;BME280;5642;50.830;12.082;2023-04-07T00:39:19;99588.38;;;4.03;27.11
11172;BME280;5642;50.830;12.082;2023-04-07T00:41:47;99594.44;;;4.02;27.60
11172;BME280;5642;50.830;12.082;2023-04-07T00:44:14;99571.13;;;3.90;27.32
11172;BME280;5642;50.830;12.082;2023-04-07T00:46:40;99592.69;;;3.98;27.29
11172;BME280;5642;50.830;12.082;2023-04-07T00:49:08;99531.44;;;3.67;27.44
11172;BME280;5642;50.830;12.082;2023-04-07T00:51:35;99586.66;;;3.96;27.10
11172;BME280;5642;50.830;12.082;2023-04-07T00:54:02;99572.84;;;3.86;27.21
11172;BME280;5642;50.830;12.082;2023-04-07T00:56:31;99581.50;;;3.87;27.48
11172;BME280;5642;50.830;12.082;2023-04-07T00:58:59;99571.13;;;3.85;27.26
11172;BME280;5642;50.830;12.082;2023-04-07T01:01:30;99584.97;;;3.90;27.47
11172;BME280;5642;50.830;12.082;2023-04-07T01:04:11;99564.22;;;3.84;27.17
11172;BME280;5642;50.830;12.082;2023-04-07T01:06:49;99572.88;;;3.82;27.61
11172;BME280;5642;50.830;12.082;2023-04-07T01:09:24;99571.16;;;3.79;27.35
11172;BME280;5642;50.830;12.082;2023-04-07T01:12:02;99572.88;;;3.74;27.37
11172;BME280;5642;50.830;12.082;2023-04-07T01:14:39;99547.00;;;3.61;27.45
11172;BME280;5642;50.830;12.082;2023-04-07T01:17:12;99571.16;;;3.70;27.79
11172;BME280;5642;50.830;12.082;2023-04-07T01:19:47;99509.91;;;3.34;27.61
11172;BME280;5642;50.830;12.082;2023-04-07T01:22:20;99566.00;;;3.67;27.40
11172;BME280;5642;50.830;12.082;2023-04-07T01:31:08;99563.41;;;3.52;28.00
11172;BME280;5642;50.830;12.082;2023-04-07T01:33:36;99569.47;;;3.54;27.83
11172;BME280;5642;50.830;12.082;2023-04-07T01:36:06;99553.94;;;3.46;28.04
11172;BME280;5642;50.830;12.082;2023-04-07T01:38:34;99547.88;;;3.49;27.80
11172;BME280;5642;50.830;12.082;2023-04-07T01:41:05;99556.50;;;3.54;27.69
11172;BME280;5642;50.830;12.082;2023-04-07T01:43:36;99561.69;;;3.60;27.78
11172;BME280;5642;50.830;12.082;2023-04-07T01:46:03;99554.78;;;3.61;28.19
11172;BME280;5642;50.830;12.082;2023-04-07T01:48:34;99543.56;;;3.62;28.02
11172;BME280;5642;50.830;12.082;2023-04-07T01:51:03;99532.34;;;3.52;27.95
11172;BME280;5642;50.830;12.082;2023-04-07T01:53:33;99521.97;;;3.44;27.81
11172;BME280;5642;50.830;12.082;2023-04-07T01:56:04;99522.00;;;3.38;27.73
11172;BME280;5642;50.830;12.082;2023-04-07T01:58:33;99545.28;;;3.55;27.66
11172;BME280;5642;50.830;12.082;2023-04-07T02:01:00;99555.63;;;3.57;27.54
11172;BME280;5642;50.830;12.082;2023-04-07T02:06:14;99550.47;;;3.55;27.70
11172;BME280;5642;50.830;12.082;2023-04-07T02:08:48;99548.75;;;3.54;27.74
11172;BME280;5642;50.830;12.082;2023-04-07T02:11:19;99547.88;;;3.53;27.96
11172;BME280;5642;50.830;12.082;2023-04-07T02:13:46;99491.81;;;3.27;28.09
11172;BME280;5642;50.830;12.082;2023-04-07T02:16:15;99540.97;;;3.52;28.10
11172;BME280;5642;50.830;12.082;2023-04-07T02:18:44;99543.56;;;3.51;27.81
11172;BME280;5642;50.830;12.082;2023-04-07T02:21:12;99541.84;;;3.53;27.69
11172;BME280;5642;50.830;12.082;2023-04-07T02:23:43;99533.22;;;3.48;27.88
11172;BME280;5642;50.830;12.082;2023-04-07T02:26:10;99539.22;;;3.48;27.53
11172;BME280;5642;50.830;12.082;2023-04-07T02:28:38;99536.66;;;3.44;28.11
11172;BME280;5642;50.830;12.082;2023-04-07T02:31:05;99534.06;;;3.51;28.23
11172;BME280;5642;50.830;12.082;2023-04-07T02:33:32;99528.03;;;3.48;27.89
11172;BME280;5642;50.830;12.082;2023-04-07T02:36:00;99525.44;;;3.48;27.96
11172;BME280;5642;50.830;12.082;2023-04-07T02:38:27;99516.81;;;3.43;28.09
11172;BME280;5642;50.830;12.082;2023-04-07T02:40:54;99503.00;;;3.39;27.95
11172;BME280;5642;50.830;12.082;2023-04-07T02:43:22;99528.00;;;3.55;28.27
11172;BME280;5642;50.830;12.082;2023-04-07T02:45:51;99510.75;;;3.44;28.43
11172;BME280;5642;50.830;12.082;2023-04-07T02:48:18;99484.03;;;3.24;27.91
11172;BME280;5642;50.830;12.082;2023-04-07T02:50:44;99528.03;;;3.48;28.23
11172;BME280;5642;50.830;12.082;2023-04-07T02:53:13;99511.63;;;3.38;28.13
11172;BME280;5642;50.830;12.082;2023-04-07T02:55:40;99519.38;;;3.41;28.23
11172;BME280;5642;50.830;12.082;2023-04-07T02:58:08;99527.16;;;3.47;28.42
11172;BME280;5642;50.830;12.082;2023-04-07T03:00:35;99529.75;;;3.46;28.13
11172;BME280;5642;50.830;12.082;2023-04-07T03:03:02;99504.72;;;3.34;28.17
11172;BME280;5642;50.830;12.082;2023-04-07T03:05:28;99515.09;;;3.36;28.24
11172;BME280;5642;50.830;12.082;2023-04-07T03:07:56;99526.31;;;3.47;28.57
11172;BME280;5642;50.830;12.082;2023-04-07T03:10:23;99521.13;;;3.47;28.57
11172;BME280;5642;50.830;12.082;2023-04-07T03:12:52;99515.09;;;3.46;28.90
11172;BME280;5642;50.830;12.082;2023-04-07T03:15:22;99521.97;;;3.52;28.36
11172;BME280;5642;50.830;12.082;2023-04-07T03:17:50;99517.66;;;3.49;28.81
11172;BME280;5642;50.830;12.082;2023-04-07T03:20:17;99517.63;;;3.55;28.70
11172;BME280;5642;50.830;12.082;2023-04-07T03:22:49;99503.00;;;3.45;28.72
11172;BME280;5642;50.830;12.082;2023-04-07T03:25:15;99501.28;;;3.37;28.83
11172;BME280;5642;50.830;12.082;2023-04-07T03:27:43;99513.34;;;3.45;28.74
11172;BME280;5642;50.830;12.082;2023-04-07T03:30:11;99517.66;;;3.45;28.43
11172;BME280;5642;50.830;12.082;2023-04-07T03:32:38;99497.84;;;3.30;28.60
11172;BME280;5642;50.830;12.082;2023-04-07T03:35:06;99506.47;;;3.32;28.58
11172;BME280;5642;50.830;12.082;2023-04-07T03:37:35;99504.75;;;3.27;28.68
11172;BME280;5642;50.830;12.082;2023-04-07T03:40:02;99515.09;;;3.28;28.91
11172;BME280;5642;50.830;12.082;2023-04-07T03:42:29;99495.25;;;3.21;29.02
11172;BME280;5642;50.830;12.082;2023-04-07T03:44:55;99519.41;;;3.31;28.80
11172;BME280;5642;50.830;12.082;2023-04-07T03:47:22;99499.56;;;3.18;28.84
11172;BME280;5642;50.830;12.082;2023-04-07T03:49:51;99488.34;;;3.17;29.19
11172;BME280;5642;50.830;12.082;2023-04-07T03:52:21;99496.13;;;3.17;29.01
11172;BME280;5642;50.830;12.082;2023-04-07T03:54:47;99504.75;;;3.19;28.74
11172;BME280;5642;50.830;12.082;2023-04-07T03:57:15;99515.09;;;3.21;29.04
11172;BME280;5642;50.830;12.082;2023-04-07T03:59:43;99475.41;;;3.00;28.99
11172;BME280;5642;50.830;12.082;2023-04-07T04:02:10;99487.47;;;3.06;29.09
11172;BME280;5642;50.830;12.082;2023-04-07T04:04:36;99507.34;;;3.10;28.88
11172;BME280;5642;50.830;12.082;2023-04-07T04:07:04;99471.09;;;2.93;29.45
11172;BME280;5642;50.830;12.082;2023-04-07T04:09:34;99479.72;;;2.94;29.09
11172;BME280;5642;50.830;12.082;2023-04-07T04:12:02;99477.16;;;2.98;29.11
11172;BME280;5642;50.830;12.082;2023-04-07T04:14:30;99474.56;;;2.95;29.24
11172;BME280;5642;50.830;12.082;2023-04-07T04:16:56;99478.00;;;2.96;29.17
11172;BME280;5642;50.830;12.082;2023-04-07T04:19:22;99519.41;;;3.19;29.25
11172;BME280;5642;50.830;12.082;2023-04-07T04:21:48;99526.31;;;3.26;29.02
11172;BME280;5642;50.830;12.082;2023-04-07T04:24:14;99526.31;;;3.30;29.38
11172;BME280;5642;50.830;12.082;2023-04-07T04:26:40;99516.81;;;3.29;28.86
11172;BME280;5642;50.830;12.082;2023-04-07T04:29:07;99522.84;;;3.42;28.97
11172;BME280;5642;50.830;12.082;2023-04-07T04:31:33;99506.44;;;3.35;29.01
11172;BME280;5642;50.830;12.082;2023-04-07T04:33:59;99495.25;;;3.30;28.79
11172;BME280;5642;50.830;12.082;2023-04-07T04:36:25;99519.38;;;3.50;28.79
11172;BME280;5642;50.830;12.082;2023-04-07T04:38:52;99499.56;;;3.39;29.29
11172;BME280;5642;50.830;12.082;2023-04-07T04:41:18;99496.94;;;3.42;29.08
11172;BME280;5642;50.830;12.082;2023-04-07T04:43:48;99520.22;;;3.66;29.08
11172;BME280;5642;50.830;12.082;2023-04-07T04:46:34;99520.22;;;3.69;29.32
11172;BME280;5642;50.830;12.082;2023-04-07T04:49:09;99521.94;;;3.75;29.42
11172;BME280;5642;50.830;12.082;2023-04-07T04:51:35;99511.53;;;3.88;29.06
11172;BME280;5642;50.830;12.082;2023-04-07T04:54:01;99530.41;;;4.22;29.13
11172;BME280;5642;50.830;12.082;2023-04-07T04:56:29;99532.91;;;4.44;29.28
11172;BME280;5642;50.830;12.082;2023-04-07T04:58:55;99528.44;;;4.70;28.41
11172;BME280;5642;50.830;12.082;2023-04-07T05:01:21;99473.13;;;4.65;28.50
11172;BME280;5642;50.830;12.082;2023-04-07T05:03:47;99523.78;;;5.16;28.63
11172;BME280;5642;50.830;12.082;2023-04-07T05:06:13;99521.94;;;5.30;28.68
11172;BME280;5642;50.830;12.082;2023-04-07T05:08:39;99514.88;;;5.46;28.29
11172;BME280;5642;50.830;12.082;2023-04-07T05:11:05;99513.88;;;5.59;28.15
11172;BME280;5642;50.830;12.082;2023-04-07T05:13:31;99481.94;;;5.48;28.49
11172;BME280;5642;50.830;12.082;2023-04-07T05:15:57;99493.94;;;5.61;28.32
11172;BME280;5642;50.830;12.082;2023-04-07T05:18:24;99486.91;;;5.71;28.49
11172;BME280;5642;50.830;12.082;2023-04-07T05:20:51;99450.59;;;5.62;28.75
11172;BME280;5642;50.830;12.082;2023-04-07T05:23:21;99488.16;;;6.14;28.18
11172;BME280;5642;50.830;12.082;2023-04-07T05:25:48;99464.16;;;6.58;27.68
11172;BME280;5642;50.830;12.082;2023-04-07T05:28:14;99498.16;;;7.55;27.39
11172;BME280;5642;50.830;12.082;2023-04-07T05:30:39;99510.22;;;8.50;26.95
11172;BME280;5642;50.830;12.082;2023-04-07T05:33:07;99493.03;;;9.51;26.65
11172;BME280;5642;50.830;12.082;2023-04-07T05:35:34;99495.09;;;10.63;25.92
11172;BME280;5642;50.830;12.082;2023-04-07T05:38:00;99490.84;;;11.66;25.57
11172;BME280;5642;50.830;12.082;2023-04-07T05:40:28;99489.84;;;12.65;25.35
11172;BME280;5642;50.830;12.082;2023-04-07T05:42:56;99445.31;;;13.27;24.92
11172;BME280;5642;50.830;12.082;2023-04-07T05:45:26;99464.03;;;14.21;24.76
11172;BME280;5642;50.830;12.082;2023-04-07T05:47:52;99488.38;;;15.01;24.62
11172;BME280;5642;50.830;12.082;2023-04-07T05:50:18;99456.06;;;15.49;24.29
11172;BME280;5642;50.830;12.082;2023-04-07T05:52:44;99489.25;;;16.22;24.22
11172;BME280;5642;50.830;12.082;2023-04-07T05:55:11;99483.75;;;16.75;24.17
11172;BME280;5642;50.830;12.082;2023-04-07T05:57:37;99440.06;;;17.13;24.17
11172;BME280;5642;50.830;12.082;2023-04-07T06:00:05;99474.75;;;18.13;23.92
11172;BME280;5642;50.830;12.082;2023-04-07T06:02:36;99476.25;;;18.88;23.66
11172;BME280;5642;50.830;12.082;2023-04-07T06:05:06;99474.94;;;19.61;23.31
11172;BME280;5642;50.830;12.082;2023-04-07T06:07:34;99472.63;;;20.20;23.07
11172;BME280;5642;50.830;12.082;2023-04-07T06:10:02;99460.88;;;20.73;23.27
11172;BME280;5642;50.830;12.082;2023-04-07T06:12:33;99459.50;;;21.28;22.81
11172;BME280;5642;50.830;12.082;2023-04-07T06:15:01;99439.28;;;21.60;23.08
11172;BME280;5642;50.830;12.082;2023-04-07T06:17:30;99444.88;;;22.14;22.41
11172;BME280;5642;50.830;12.082;2023-04-07T06:19:57;99481.50;;;22.90;22.41
11172;BME280;5642;50.830;12.082;2023-04-07T06:22:23;99475.25;;;23.44;22.47
11172;BME280;5642;50.830;12.082;2023-04-07T06:24:50;99482.22;;;24.09;22.17
11172;BME280;5642;50.830;12.082;2023-04-07T06:27:18;99462.34;;;24.63;22.16
11172;BME280;5642;50.830;12.082;2023-04-07T06:29:46;99444.44;;;25.13;21.90
11172;BME280;5642;50.830;12.082;2023-04-07T06:32:13;99466.06;;;25.79;21.75
11172;BME280;5642;50.830;12.082;2023-04-07T06:34:39;99448.34;;;26.15;21.37
11172;BME280;5642;50.830;12.082;2023-04-07T06:37:07;99412.78;;;26.40;21.06
11172;BME280;5642;50.830;12.082;2023-04-07T06:39:37;99426.09;;;26.86;20.99
11172;BME280;5642;50.830;12.082;2023-04-07T06:42:05;99428.69;;;27.23;21.20
11172;BME280;5642;50.830;12.082;2023-04-07T06:44:31;99466.50;;;27.75;20.68
11172;BME280;5642;50.830;12.082;2023-04-07T06:46:57;99463.81;;;28.01;20.47
11172;BME280;5642;50.830;12.082;2023-04-07T06:49:26;99457.78;;;28.25;20.26
11172;BME280;5642;50.830;12.082;2023-04-07T06:51:59;99464.47;;;28.47;20.23
11172;BME280;5642;50.830;12.082;2023-04-07T06:54:25;99460.59;;;28.41;20.32
11172;BME280;5642;50.830;12.082;2023-04-07T06:56:52;99447.31;;;27.96;20.70
11172;BME280;5642;50.830;12.082;2023-04-07T06:59:18;99460.50;;;28.07;20.43
11172;BME280;5642;50.830;12.082;2023-04-07T07:01:46;99448.28;;;28.13;20.33
11172;BME280;5642;50.830;12.082;2023-04-07T07:04:13;99463.81;;;28.19;20.55
11172;BME280;5642;50.830;12.082;2023-04-07T07:06:40;99440.84;;;27.63;20.57
11172;BME280;5642;50.830;12.082;2023-04-07T07:09:09;99461.84;;;26.97;20.67
11172;BME280;5642;50.830;12.082;2023-04-07T07:11:37;99458.66;;;26.09;21.09
11172;BME280;5642;50.830;12.082;2023-04-07T07:14:05;99463.75;;;25.16;21.51
11172;BME280;5642;50.830;12.082;2023-04-07T07:16:31;99474.66;;;24.35;22.08
11172;BME280;5642;50.830;12.082;2023-04-07T07:18:58;99469.50;;;23.60;22.06
11172;BME280;5642;50.830;12.082;2023-04-07T07:21:25;99471.66;;;22.91;22.49
11172;BME280;5642;50.830;12.082;2023-04-07T07:23:51;99476.03;;;22.25;22.72
11172;BME280;5642;50.830;12.082;2023-04-07T07:26:18;99475.41;;;21.64;23.01
11172;BME280;5642;50.830;12.082;2023-04-07T07:28:49;99480.03;;;21.38;22.78
11172;BME280;5642;50.830;12.082;2023-04-07T07:31:16;99468.97;;;21.32;22.64
11172;BME280;5642;50.830;12.082;2023-04-07T07:33:43;99479.38;;;21.24;22.75
11172;BME280;5642;50.830;12.082;2023-04-07T07:36:11;99475.63;;;21.14;22.45
11172;BME280;5642;50.830;12.082;2023-04-07T07:38:39;99479.53;;;20.97;22.85
11172;BME280;5642;50.830;12.082;2023-04-07T07:41:06;99489.63;;;20.68;22.74
11172;BME280;5642;50.830;12.082;2023-04-07T07:43:33;99498.72;;;20.40;22.95
11172;BME280;5642;50.830;12.082;2023-04-07T07:45:59;99486.56;;;20.11;23.08
11172;BME280;5642;50.830;12.082;2023-04-07T07:48:27;99498.47;;;19.92;22.95
11172;BME280;5642;50.830;12.082;2023-04-07T07:50:55;99502.41;;;19.87;23.26
11172;BME280;5642;50.830;12.082;2023-04-07T07:53:21;99489.78;;;20.28;22.85
11172;BME280;5642;50.830;12.082;2023-04-07T07:55:47;99491.13;;;21.08;22.49
11172;BME280;5642;50.830;12.082;2023-04-07T07:58:15;99486.59;;;21.80;22.23
11172;BME280;5642;50.830;12.082;2023-04-07T08:00:41;99489.53;;;22.79;22.11
11172;BME280;5642;50.830;12.082;2023-04-07T08:03:08;99491.91;;;23.79;21.81
11172;BME280;5642;50.830;12.082;2023-04-07T08:05:34;99478.34;;;24.43;21.83
11172;BME280;5642;50.830;12.082;2023-04-07T08:08:03;99481.72;;;24.76;21.48
11172;BME280;5642;50.830;12.082;2023-04-07T08:10:29;99486.72;;;24.90;21.77
11172;BME280;5642;50.830;12.082;2023-04-07T08:12:57;99482.56;;;25.35;21.52
11172;BME280;5642;50.830;12.082;2023-04-07T08:15:24;99483.69;;;26.00;21.41
11172;BME280;5642;50.830;12.082;2023-04-07T08:17:51;99475.72;;;26.65;21.07
11172;BME280;5642;50.830;12.082;2023-04-07T08:20:20;99463.78;;;27.22;20.95
11172;BME280;5642;50.830;12.082;2023-04-07T08:22:50;99477.91;;;27.69;20.79
11172;BME280;5642;50.830;12.082;2023-04-07T08:25:16;99485.66;;;28.16;20.45
11172;BME280;5642;50.830;12.082;2023-04-07T08:27:43;99480.19;;;28.93;20.59
11172;BME280;5642;50.830;12.082;2023-04-07T08:30:09;99469.22;;;29.77;20.52
11172;BME280;5642;50.830;12.082;2023-04-07T08:32:40;99466.09;;;30.45;20.02
11172;BME280;5642;50.830;12.082;2023-04-07T08:35:07;99473.88;;;30.95;20.00
11172;BME280;5642;50.830;12.082;2023-04-07T08:37:34;99478.09;;;31.51;19.99
11172;BME280;5642;50.830;12.082;2023-04-07T08:40:06;99469.75;;;32.21;19.97
11172;BME280;5642;50.830;12.082;2023-04-07T08:42:33;99467.47;;;32.98;19.36
11172;BME280;5642;50.830;12.082;2023-04-07T08:45:05;99467.09;;;33.73;19.25
11172;BME280;5642;50.830;12.082;2023-04-07T08:47:33;99470.31;;;34.39;19.45
11172;BME280;5642;50.830;12.082;2023-04-07T08:50:05;99467.53;;;34.95;19.14
11172;BME280;5642;50.830;12.082;2023-04-07T08:52:53;99462.88;;;35.50;18.83
11172;BME280;5642;50.830;12.082;2023-04-07T08:55:19;99460.81;;;35.78;18.80
11172;BME280;5642;50.830;12.082;2023-04-07T08:57:46;99466.91;;;36.06;18.73
11172;BME280;5642;50.830;12.082;2023-04-07T09:00:19;99459.72;;;36.38;18.54
11172;BME280;5642;50.830;12.082;2023-04-07T09:02:46;99465.53;;;36.75;18.58
11172;BME280;5642;50.830;12.082;2023-04-07T09:05:15;99464.34;;;37.09;18.65
11172;BME280;5642;50.830;12.082;2023-04-07T09:07:41;99467.00;;;37.29;18.23
11172;BME280;5642;50.830;12.082;2023-04-07T09:10:11;99457.00;;;37.47;18.37
11172;BME280;5642;50.830;12.082;2023-04-07T09:12:38;99455.31;;;37.78;18.19
11172;BME280;5642;50.830;12.082;2023-04-07T09:15:05;99445.47;;;37.95;18.13
11172;BME280;5642;50.830;12.082;2023-04-07T09:17:34;99444.22;;;37.97;18.18
11172;BME280;5642;50.830;12.082;2023-04-07T09:20:05;99446.31;;;37.95;17.76
11172;BME280;5642;50.830;12.082;2023-04-07T09:22:42;99442.00;;;38.13;18.09
11172;BME280;5642;50.830;12.082;2023-04-07T09:25:28;99438.13;;;38.38;17.82
11172;BME280;5642;50.830;12.082;2023-04-07T09:30:28;99415.78;;;38.42;17.73
11172;BME280;5642;50.830;12.082;2023-04-07T09:32:56;99444.91;;;38.36;18.00
11172;BME280;5642;50.830;12.082;2023-04-07T09:35:22;99441.00;;;38.25;17.98
11172;BME280;5642;50.830;12.082;2023-04-07T09:38:06;99440.59;;;38.04;17.73
11172;BME280;5642;50.830;12.082;2023-04-07T09:40:34;99432.03;;;38.18;17.72
11172;BME280;5642;50.830;12.082;2023-04-07T09:43:03;99436.13;;;38.52;17.80
11172;BME280;5642;50.830;12.082;2023-04-07T09:45:31;99436.72;;;38.72;17.49
11172;BME280;5642;50.830;12.082;2023-04-07T09:47:57;99443.09;;;38.48;17.64
11172;BME280;5642;50.830;12.082;2023-04-07T09:50:38;99436.09;;;38.34;17.56
11172;BME280;5642;50.830;12.082;2023-04-07T09:53:05;99432.66;;;38.20;17.85
11172;BME280;5642;50.830;12.082;2023-04-07T09:55:32;99432.44;;;38.40;17.39
11172;BME280;5642;50.830;12.082;2023-04-07T09:57:59;99438.59;;;38.35;17.58
11172;BME280;5642;50.830;12.082;2023-04-07T10:00:25;99434.19;;;38.34;17.66
11172;BME280;5642;50.830;12.082;2023-04-07T10:02:51;99447.31;;;38.44;17.48
11172;BME280;5642;50.830;12.082;2023-04-07T10:05:18;99434.97;;;38.42;17.58
11172;BME280;5642;50.830;12.082;2023-04-07T10:07:48;99437.25;;;37.77;17.67
11172;BME280;5642;50.830;12.082;2023-04-07T10:10:15;99433.06;;;37.05;17.84
11172;BME280;5642;50.830;12.082;2023-04-07T10:12:43;99442.94;;;36.41;17.86
11172;BME280;5642;50.830;12.082;2023-04-07T10:15:13;99444.44;;;35.98;17.50
11172;BME280;5642;50.830;12.082;2023-04-07T10:17:44;99445.09;;;35.74;17.58
11172;BME280;5642;50.830;12.082;2023-04-07T10:20:14;99436.66;;;35.55;17.87
11172;BME280;5642;50.830;12.082;2023-04-07T10:22:43;99434.97;;;35.34;18.06
11172;BME280;5642;50.830;12.082;2023-04-07T10:25:13;99437.44;;;35.16;18.04
11172;BME280;5642;50.830;12.082;2023-04-07T10:30:20;99430.50;;;35.20;17.98
11172;BME280;5642;50.830;12.082;2023-04-07T10:32:49;99429.53;;;35.41;17.75
11172;BME280;5642;50.830;12.082;2023-04-07T10:35:16;99432.69;;;35.58;17.94
11172;BME280;5642;50.830;12.082;2023-04-07T10:40:41;99429.13;;;35.44;17.97
11172;BME280;5642;50.830;12.082;2023-04-07T10:43:08;99427.44;;;35.30;17.93
11172;BME280;5642;50.830;12.082;2023-04-07T10:48:17;99427.53;;;35.02;18.05
11172;BME280;5642;50.830;12.082;2023-04-07T10:53:30;99427.94;;;34.51;18.10
11172;BME280;5642;50.830;12.082;2023-04-07T10:55:56;99424.34;;;34.44;18.08
11172;BME280;5642;50.830;12.082;2023-04-07T10:58:25;99429.00;;;34.57;17.70
11172;BME280;5642;50.830;12.082;2023-04-07T11:03:40;99411.34;;;34.74;17.92
11172;BME280;5642;50.830;12.082;2023-04-07T11:06:12;99424.53;;;34.77;17.79
11172;BME280;5642;50.830;12.082;2023-04-07T11:08:46;99429.19;;;34.55;17.34
11172;BME280;5642;50.830;12.082;2023-04-07T11:11:18;99422.25;;;34.46;17.80
11172;BME280;5642;50.830;12.082;2023-04-07T11:13:48;99423.31;;;34.17;17.77
11172;BME280;5642;50.830;12.082;2023-04-07T11:16:18;99420.16;;;33.86;17.76
11172;BME280;5642;50.830;12.082;2023-04-07T11:19:03;99433.59;;;33.45;17.75
11172;BME280;5642;50.830;12.082;2023-04-07T11:21:30;99428.59;;;33.13;18.30
11172;BME280;5642;50.830;12.082;2023-04-07T11:23:56;99432.72;;;32.87;17.89
11172;BME280;5642;50.830;12.082;2023-04-07T11:26:25;99424.34;;;32.68;18.17
11172;BME280;5642;50.830;12.082;2023-04-07T11:28:54;99426.03;;;32.54;18.08
11172;BME280;5642;50.830;12.082;2023-04-07T11:31:30;99436.38;;;32.36;17.85
11172;BME280;5642;50.830;12.082;2023-04-07T11:34:00;99434.50;;;32.21;18.24
11172;BME280;5642;50.830;12.082;2023-04-07T11:36:40;99429.78;;;31.86;18.08
11172;BME280;5642;50.830;12.082;2023-04-07T11:39:29;99436.81;;;31.27;18.06
11172;BME280;5642;50.830;12.082;2023-04-07T11:41:56;99428.53;;;30.66;18.05
11172;BME280;5642;50.830;12.082;2023-04-07T11:44:22;99434.00;;;30.42;17.71
11172;BME280;5642;50.830;12.082;2023-04-07T11:47:00;99423.66;;;29.90;17.64
11172;BME280;5642;50.830;12.082;2023-04-07T11:49:29;99435.31;;;29.34;17.35
11172;BME280;5642;50.830;12.082;2023-04-07T11:52:01;99429.50;;;28.55;17.00
11172;BME280;5642;50.830;12.082;2023-04-07T11:54:45;99434.56;;;27.54;16.91
11172;BME280;5642;50.830;12.082;2023-04-07T11:57:12;99430.94;;;26.56;17.06
11172;BME280;5642;50.830;12.082;2023-04-07T11:59:40;99443.75;;;25.40;16.99
11172;BME280;5642;50.830;12.082;2023-04-07T12:02:07;99436.69;;;24.20;17.27
11172;BME280;5642;50.830;12.082;2023-04-07T12:04:34;99442.66;;;23.29;17.19
11172;BME280;5642;50.830;12.082;2023-04-07T12:07:10;99430.66;;;22.47;17.14
11172;BME280;5642;50.830;12.082;2023-04-07T12:09:36;99441.78;;;21.85;17.35
11172;BME280;5642;50.830;12.082;2023-04-07T12:12:06;99442.69;;;21.27;17.73
11172;BME280;5642;50.830;12.082;2023-04-07T12:14:34;99437.59;;;20.64;17.70
11172;BME280;5642;50.830;12.082;2023-04-07T12:17:02;99450.47;;;20.32;17.66
11172;BME280;5642;50.830;12.082;2023-04-07T12:19:29;99448.91;;;20.04;17.69
11172;BME280;5642;50.830;12.082;2023-04-07T12:21:57;99444.88;;;19.73;17.37
11172;BME280;5642;50.830;12.082;2023-04-07T12:24:23;99456.97;;;19.52;17.61
11172;BME280;5642;50.830;12.082;2023-04-07T12:26:51;99449.13;;;19.36;17.52
11172;BME280;5642;50.830;12.082;2023-04-07T12:29:19;99437.31;;;19.28;17.47
11172;BME280;5642;50.830;12.082;2023-04-07T12:31:46;99435.06;;;19.22;17.68
11172;BME280;5642;50.830;12.082;2023-04-07T12:34:13;99449.63;;;19.16;17.75
11172;BME280;5642;50.830;12.082;2023-04-07T12:36:41;99454.25;;;19.12;17.62
11172;BME280;5642;50.830;12.082;2023-04-07T12:39:14;99439.25;;;18.99;17.67
11172;BME280;5642;50.830;12.082;2023-04-07T12:41:40;99456.72;;;18.89;17.74
11172;BME280;5642;50.830;12.082;2023-04-07T12:44:09;99431.28;;;18.72;17.69
11172;BME280;5642;50.830;12.082;2023-04-07T12:46:36;99452.69;;;18.69;17.50
11172;BME280;5642;50.830;12.082;2023-04-07T12:49:04;99439.41;;;18.55;17.69
11172;BME280;5642;50.830;12.082;2023-04-07T12:51:32;99450.41;;;18.49;17.66
11172;BME280;5642;50.830;12.082;2023-04-07T12:53:58;99418.59;;;18.34;17.70
11172;BME280;5642;50.830;12.082;2023-04-07T12:56:27;99449.84;;;18.44;17.76
11172;BME280;5642;50.830;12.082;2023-04-07T12:58:55;99437.56;;;18.28;17.77
11172;BME280;5642;50.830;12.082;2023-04-07T13:01:21;99443.41;;;18.33;17.78
11172;BME280;5642;50.830;12.082;2023-04-07T13:03:49;99434.88;;;18.43;17.76
11172;BME280;5642;50.830;12.082;2023-04-07T13:06:15;99439.41;;;18.55;17.69
11172;BME280;5642;50.830;12.082;2023-04-07T13:08:42;99431.56;;;18.67;17.63
11172;BME280;5642;50.830;12.082;2023-04-07T13:11:08;99435.53;;;18.74;17.67
11172;BME280;5642;50.830;12.082;2023-04-07T13:13:37;99434.91;;;18.84;17.52
11172;BME280;5642;50.830;12.082;2023-04-07T13:16:04;99435.09;;;18.95;17.67
11172;BME280;5642;50.830;12.082;2023-04-07T13:18:32;99439.59;;;19.07;17.79
11172;BME280;5642;50.830;12.082;2023-04-07T13:20:59;99431.31;;;19.11;17.80
11172;BME280;5642;50.830;12.082;2023-04-07T13:23:25;99427.09;;;19.22;17.74
11172;BME280;5642;50.830;12.082;2023-04-07T13:25:53;99435.53;;;19.41;17.60
11172;BME280;5642;50.830;12.082;2023-04-07T13:28:20;99433.44;;;19.46;17.69
11172;BME280;5642;50.830;12.082;2023-04-07T13:30:47;99440.81;;;19.55;17.67
11172;BME280;5642;50.830;12.082;2023-04-07T13:33:15;99434.75;;;19.53;17.60
11172;BME280;5642;50.830;12.082;2023-04-07T13:35:42;99434.50;;;19.43;17.96
11172;BME280;5642;50.830;12.082;2023-04-07T13:38:09;99434.38;;;19.32;18.01